Gnadenhutten, Ohio
Current Conditions -  °F | °C
As of 10:53 PM on Thursday 27 Nov 2014 (Local Time) from KPHD Reporting Station
Overcast Overcast  
Wind Chill: 22°   Ceiling: 2900
Heat Index: 30°   Visibility: 10mi
Dew Point: 24°   Wind: 9mph
Humidity: 79%   Direction: 280°W
Pressure: 30.27"   Gusts: NA
Location:  40.36°N, 81.43°W
Report Text: KPHD 280353Z AUTO 28008KT 10SM FEW024 BKN029 OVC085 M01/M04 A3027 RMK AO2 SNB0259E30 SLP259 P0000 T10111044
Loading
Personal Weather Stations






























Interactive Weather Map New forecast layout! Learn more

10-Day Weather Forecast

Advertisements
Track Severe Weather on mobile